• Join FlightAware (Why Join?)
  • Login
  • US Flag 
05:18AM EST


 

Airport Tracker/Info


-or-


 

Live Flight TrackerFlight Track Log ✈ EJA929 ✈ 22-Jun-2014 ✈ KOMA - KCRQ

Flight Track Log - Related Links

Times and Time Zones

All times are in EDT time to prevent confusion due to time zone crossing. See the EJA929 flight status page for this flight to view local times or setup timezone preferences in your user account.

Time Position Orientation Groundspeed Altitude Reporting Facility
EDT Latitude Longitude Course Direction KTS MPH feet Rate Location/Type
02:00PM 41.2925 -95.8867 207° Southwest 175 201 1,700  Level Minneapolis Center
02:02PM 41.2211 -95.9356 207° Southwest 239 275 6,200 2,880 Climbing Minneapolis Center
02:03PM 41.1703 -96.0031 225° Southwest 249 287 9,200 2,280 Climbing Minneapolis Center
02:04PM 41.1397 -96.0989 247° West 274 315 11,000 1,620 Climbing Minneapolis Center
02:05PM 41.1031 -96.2094 246° West 313 360 12,600 1,620 Climbing Minneapolis Center
02:06PM 41.0578 -96.3458 246° West 330 380 14,400 1,500 Climbing Minneapolis Center
02:07PM 41.0175 -96.4647 246° West 346 398 15,700 1,140 Climbing Minneapolis Center
02:08PM 40.9756 -96.5894 246° West 363 418 16,800 1,200 Climbing Minneapolis Center
02:09PM 40.9328 -96.7153 246° West 369 425 18,300 1,260 Climbing Minneapolis Center
02:10PM 40.8942 -96.8461 249° West 378 435 19,500 1,260 Climbing Minneapolis Center
02:11PM 40.8597 -96.9814 251° West 384 442 21,000 1,260 Climbing Minneapolis Center
02:12PM 40.8222 -97.1172 250° West 390 449 22,200 1,200 Climbing Minneapolis Center
02:13PM 40.7764 -97.2833 250° West 399 459 23,500 1,140 Climbing Minneapolis Center
02:14PM 40.7431 -97.4069 250° West 407 468 24,600 1,200 Climbing Minneapolis Center
02:15PM 40.6947 -97.5786 250° West 412 474 26,100 1,200 Climbing Minneapolis Center
02:16PM 40.6544 -97.7261 250° West 421 484 27,200 1,140 Climbing Minneapolis Center
02:17PM 40.6122 -97.8742 249° West 425 489 28,500 1,200 Climbing Minneapolis Center
02:18PM 40.5703 -98.0231 250° West 428 493 29,800 1,140 Climbing Minneapolis Center
02:19PM 40.5281 -98.1750 250° West 435 501 30,900 1,500 Climbing Minneapolis Center
02:20PM 40.4850 -98.3275 250° West 441 507 33,000 1,920 Climbing Minneapolis Center
02:21PM 40.4419 -98.4750 249° West 437 503 34,900 2,220 Climbing Minneapolis Center
02:22PM 40.3919 -98.6483 249° West 426 490 37,600 2,400 Climbing Minneapolis Center
02:23PM 40.3522 -98.7892 250° West 417 480 39,900 1,140 Climbing Minneapolis Center
02:24PM 40.3114 -98.9272 249° West 410 472 40,000  Climbing Minneapolis Center
02:25PM 40.2669 -99.0786 249° West 430 495 40,000  Level Minneapolis Center
02:26PM 40.2211 -99.2347 249° West 450 518 40,000  Level Minneapolis Center
02:28PM 40.1753 -99.3925 249° West 456 525 40,000  Level Minneapolis Center
02:29PM 40.1283 -99.5486 249° West 457 526 40,000  Level Minneapolis Center
02:30PM 40.0817 -99.7056 249° West 459 528 40,000  Level Minneapolis Center
02:31PM 40.0244 -99.8939 248° West 462 532 40,000  Level Minneapolis Center
02:32PM 39.9769 -100.0506 248° West 462 532 40,000 60 Level Minneapolis Center
02:33PM 39.9292 -100.2089 249° West 463 533 40,200 540 Climbing Minneapolis Center
02:34PM 39.8828 -100.3608 248° West 461 531 41,200 960 Climbing Minneapolis Center
02:35PM 39.8172 -100.5697 248° West 447 514 42,600 720 Climbing Denver Center
02:36PM 39.7728 -100.7131 248° West 446 513 43,000 180 Climbing Denver Center
02:37PM 39.7203 -100.8811 248° West 447 514 43,000  Level Denver Center
02:38PM 39.6744 -101.0297 248° West 455 524 43,000  Level Denver Center
02:39PM 39.6186 -101.2028 247° West 463 533 43,000  Level Denver Center
02:40PM 39.5717 -101.3522 248° West 465 535 43,000  Level Denver Center
02:41PM 39.5150 -101.5297 248° West 472 543 43,000  Level Denver Center
02:42PM 39.4667 -101.6789 247° West 472 543 43,000  Level Denver Center
02:43PM 39.4178 -101.8283 247° West 470 541 43,000  Level Denver Center
02:44PM 39.3619 -101.9997 247° West 468 539 43,000  Level Denver Center
02:45PM 39.3117 -102.1558 247° West 465 535 43,000  Level Denver Center
02:46PM 39.2556 -102.3264 247° West 466 536 43,000  Level Denver Center
02:47PM 39.2064 -102.4714 246° West 465 535 43,000  Level Denver Center
02:49PM 39.1503 -102.6422 247° West 465 535 43,000  Level Denver Center
02:50PM 39.1053 -102.7731 246° West 465 535 43,000  Level Denver Center
02:51PM 39.0458 -102.9539 247° West 459 528 43,000  Level Denver Center
02:52PM 38.9942 -103.1033 246° West 458 527 43,000  Level Denver Center
02:53PM 38.9436 -103.2542 247° West 458 527 43,000  Level Denver Center
02:54PM 38.8928 -103.4022 246° West 457 526 43,000  Level Denver Center
02:55PM 38.8375 -103.5636 246° West 452 520 43,000  Level Denver Center
02:56PM 38.7808 -103.7069 243° Southwest 451 519 43,000  Level Denver Center
02:57PM 38.7192 -103.8478 241° Southwest 452 520 43,000  Level Denver Center
02:58PM 38.6581 -103.9883 241° Southwest 453 521 43,000  Level Denver Center
02:59PM 38.5892 -104.1475 241° Southwest 453 521 43,000  Level Denver Center
03:00PM 38.5278 -104.2886 241° Southwest 454 522 43,000  Level Denver Center
03:01PM 38.4658 -104.4269 240° Southwest 453 521 43,000  Level Denver Center
03:02PM 38.4044 -104.5658 241° Southwest 450 518 43,000  Level Denver Center
03:03PM 38.3422 -104.7053 240° Southwest 450 518 43,000  Level Denver Center
03:04PM 38.2794 -104.8464 240° Southwest 449 517 43,000  Level Denver Center
03:05PM 38.2056 -105.0114 240° Southwest 447 514 43,000  Level Denver Center
03:06PM 38.1428 -105.1503 240° Southwest 454 522 43,000  Level Denver Center
03:07PM 38.0789 -105.2903 240° Southwest 455 524 43,000  Level Denver Center
03:08PM 38.0164 -105.4292 240° Southwest 458 527 43,000  Level Denver Center
03:09PM 37.9517 -105.5692 240° Southwest 458 527 43,000  Level Denver Center
03:10PM 37.8744 -105.7361 240° Southwest 461 531 43,000  Level Denver Center
03:11PM 37.8122 -105.8717 240° Southwest 454 522 43,000  Level Denver Center
03:12PM 37.7497 -106.0078 240° Southwest 452 520 43,000  Level Denver Center
03:13PM 37.6942 -106.1489 244° Southwest 451 519 43,000  Level Denver Center
03:14PM 37.6494 -106.2958 249° West 451 519 43,000  Level Denver Center
03:15PM 37.5992 -106.4644 249° West 456 525 43,000  Level Denver Center
03:16PM 37.5547 -106.6078 249° West 457 526 43,000  Level Denver Center
03:17PM 37.5039 -106.7714 249° West 455 524 43,000  Level Denver Center
03:19PM 37.4606 -106.9119 249° West 451 519 43,000  Level Denver Center
03:20PM 37.4083 -107.0761 248° West 452 520 43,000  Level Denver Center
03:21PM 37.3636 -107.2203 249° West 459 528 43,000  Level Denver Center
03:22PM 37.3111 -107.3864 248° West 459 528 43,000  Level Denver Center
03:23PM 37.2642 -107.5294 248° West 459 528 43,000  Level Denver Center
03:24PM 37.2106 -107.6983 248° West 463 533 43,000  Level Denver Center
03:25PM 37.1644 -107.8411 248° West 463 533 43,000  Level Denver Center
03:26PM 37.1097 -108.0103 248° West 466 536 43,000  Level Denver Center
03:27PM 37.0622 -108.1556 248° West 467 537 43,000  Level Denver Center
03:28PM 37.0064 -108.3247 248° West 470 541 43,000  Level Denver Center
03:29PM 36.9592 -108.4689 248° West 470 541 43,000  Level Denver Center
03:30PM 36.9039 -108.6344 247° West 468 539 43,000  Level Denver Center
03:31PM 36.8567 -108.7781 248° West 468 539 43,000  Level Denver Center
03:32PM 36.8008 -108.9431 247° West 467 537 43,000  Level Denver Center
03:33PM 36.7542 -109.0842 248° West 466 536 43,000  Level Denver Center
03:34PM 36.6989 -109.2467 247° West 461 531 43,000  Level Denver Center
03:35PM 36.6517 -109.3853 247° West 459 528 43,000  Level Denver Center
03:36PM 36.5956 -109.5486 247° West 459 528 43,000  Level Denver Center
03:37PM 36.5483 -109.6864 247° West 459 528 43,000  Level Denver Center
03:38PM 36.4933 -109.8475 247° West 455 524 43,000  Level Denver Center
03:39PM 36.4444 -109.9861 246° West 456 525 43,000  Level Denver Center
03:40PM 36.3886 -110.1475 247° West 456 525 43,000  Level Denver Center
03:41PM 36.3447 -110.2731 247° West 457 526 43,000  Level Denver Center
03:42PM 36.2828 -110.4481 246° West 463 533 43,000  Level Denver Center
03:43PM 36.2308 -110.5939 246° West 462 532 43,000  Level Denver Center
03:44PM 36.1786 -110.7389 246° West 462 532 43,000  Level Denver Center
03:45PM 36.1247 -110.8872 246° West 467 537 43,000  Level Denver Center
03:46PM 36.0728 -111.0347 246° West 467 537 43,000  Level Denver Center
03:47PM 36.0183 -111.1836 246° West 469 540 43,000  Level Denver Center
03:49PM 35.9536 -111.3625 246° West 474 545 43,000  Level Denver Center
03:50PM 35.8989 -111.5131 246° West 476 548 43,000  Level Denver Center
03:51PM 35.8447 -111.6600 246° West 481 554 43,000  Level Los Angeles Center
03:52PM 35.7894 -111.8108 246° West 482 555 43,000  Level Los Angeles Center
03:53PM 35.7342 -111.9606 246° West 482 555 43,000  Level Los Angeles Center
03:54PM 35.6797 -112.1092 246° West 480 552 43,000  Level Los Angeles Center
03:55PM 35.6228 -112.2597 245° Southwest 483 556 43,000  Level Los Angeles Center
03:56PM 35.5550 -112.4411 245° Southwest 485 558 43,000  Level Los Angeles Center
03:57PM 35.4989 -112.5900 245° Southwest 485 558 43,000  Level Los Angeles Center
03:58PM 35.4389 -112.7486 245° Southwest 485 558 43,000  Level Los Angeles Center
03:59PM 35.3817 -112.8981 245° Southwest 485 558 43,000  Level Los Angeles Center
04:00PM 35.3231 -113.0486 245° Southwest 485 558 43,000 -660 Level Los Angeles Center
04:01PM 35.2675 -113.1975 245° Southwest 480 552 41,700 -1,680 Descending Los Angeles Center
04:02PM 35.2114 -113.3408 244° Southwest 463 533 39,600 -2,040 Descending Los Angeles Center
04:03PM 35.1567 -113.4847 245° Southwest 462 532 37,600 -2,040 Descending Los Angeles Center
04:04PM 35.0983 -113.6350 245° Southwest 484 557 35,500 -2,760 Descending Los Angeles Center
04:05PM 35.0289 -113.8169 245° Southwest 489 563 31,900 -2,340 Descending Los Angeles Center
04:06PM 34.9672 -113.9689 244° Southwest 500 575 30,700 -960 Descending Los Angeles Center
04:07PM 34.9053 -114.1236 244° Southwest 503 579 30,000 -360 Descending Los Angeles Center
04:08PM 34.8436 -114.2772 244° Southwest 505 581 30,000  Level Los Angeles Center
04:09PM 34.7833 -114.4303 244° Southwest 505 581 30,000  Level Los Angeles Center
04:10PM 34.6853 -114.5961 234° Southwest 504 580 30,000  Level Los Angeles Center
04:11PM 34.6014 -114.7233 231° Southwest 506 582 30,000 -60 Level Los Angeles Center
04:12PM 34.5139 -114.8547 231° Southwest 504 580 29,900 -1,020 Descending Los Angeles Center
04:13PM 34.4264 -114.9872 231° Southwest 505 581 27,900 -2,040 Descending Los Angeles Center
04:14PM 34.3383 -115.1169 231° Southwest 503 579 25,700 -2,400 Descending Los Angeles Center
04:15PM 34.2381 -115.2664 231° Southwest 482 555 23,000 -1,860 Descending Los Angeles Center
04:16PM 34.1572 -115.3844 230° Southwest 460 529 21,900 -480 Descending Los Angeles Center
04:17PM 34.0803 -115.5006 231° Southwest 451 519 22,000 -240 Climbing Los Angeles Center
04:19PM 34.0019 -115.6142 230° Southwest 445 512 21,400 -780 Descending Los Angeles Center
04:20PM 33.9236 -115.7303 231° Southwest 444 511 20,500 -1,200 Descending Los Angeles Center
04:21PM 33.8303 -115.8664 230° Southwest 445 512 19,000 -1,380 Descending Los Angeles Center
04:22PM 33.7542 -115.9769 230° Southwest 437 503 17,700 -1,140 Descending Los Angeles Center
04:23PM 33.6819 -116.0825 231° Southwest 417 480 16,700 -900 Descending Los Angeles Center
04:24PM 33.6142 -116.1883 232° Southwest 407 468 15,900 -420 Descending Los Angeles Center
04:25PM 33.5553 -116.3033 238° Southwest 403 464 15,900 -1,020 Level Los Angeles Center
04:26PM 33.4867 -116.4419 239° Southwest 404 465 13,800 -2,220 Descending Los Angeles Center
04:27PM 33.4303 -116.5536 239° Southwest 403 464 11,400 -1,920 Descending Los Angeles Center
04:28PM 33.3825 -116.6506 239° Southwest 372 428 9,900 -1,260 Descending Los Angeles Center
04:29PM 33.3428 -116.7281 238° Southwest 319 367 8,800 -1,020 Descending Los Angeles Center
04:30PM 33.3053 -116.8011 238° Southwest 285 328 7,900 -720 Descending Los Angeles Center
04:31PM 33.2653 -116.8786 238° Southwest 246 283 7,300 -420 Descending Los Angeles Center
04:31PM 33.2500 -116.9167 244° Southwest 224 258 7,300 -720 Level Southern California TRACON
04:32PM 33.2167 -116.9667 231° Southwest 221 254 6,300 -960 Descending Southern California TRACON
04:33PM 33.1833 -117.0167 231° Southwest 194 223 5,500 -660 Descending Southern California TRACON
04:34PM 33.1667 -117.0667 248° West 189 217 5,000 -1,080 Descending Southern California TRACON
04:35PM 33.1500 -117.1333 253° West 161 185 3,400 -1,500 Descending Southern California TRACON
04:36PM 33.1500 -117.1833 270° West 142 163 2,000 -1,020 Descending Southern California TRACON
04:37PM 33.1333 -117.2167 239° Southwest 123 142 1,300 -720 Descending Southern California TRACON
04:38PM 33.1333 -117.2667 270° West 128 147 600 -720 Descending Southern California TRACON
04:40PM 33.1167 -117.2667 257° West  Level FlightAware Approximate
04:47PM 33.1283 -117.2801 257° West  Level Estimated